sensor_id;sensor_type;location;lat;lon;timestamp;pressure;altitude;pressure_sealevel;temperature;humidity
20889;BME280;10604;51.976;7.594;2022-07-06T00:01:25;101665.06;;;27.33;35.27
20889;BME280;10604;51.976;7.594;2022-07-06T00:03:51;101661.91;;;28.00;34.91
20889;BME280;10604;51.976;7.594;2022-07-06T00:06:16;101653.59;;;27.61;35.18
20889;BME280;10604;51.976;7.594;2022-07-06T00:08:42;101676.66;;;28.07;34.56
20889;BME280;10604;51.976;7.594;2022-07-06T00:11:08;101670.34;;;27.97;34.87
20889;BME280;10604;51.976;7.594;2022-07-06T00:13:33;101666.19;;;27.72;35.38
20889;BME280;10604;51.976;7.594;2022-07-06T00:15:59;101664.81;;;28.38;34.00
20889;BME280;10604;51.976;7.594;2022-07-06T00:18:24;101668.28;;;28.60;34.19
20889;BME280;10604;51.976;7.594;2022-07-06T00:20:49;101669.44;;;28.67;33.85
20889;BME280;10604;51.976;7.594;2022-07-06T00:23:15;101667.69;;;28.47;34.06
20889;BME280;10604;51.976;7.594;2022-07-06T00:25:40;101673.53;;;28.82;33.51
20889;BME280;10604;51.976;7.594;2022-07-06T00:28:06;101662.03;;;27.47;35.05
20889;BME280;10604;51.976;7.594;2022-07-06T00:30:32;101661.53;;;28.14;34.16
20889;BME280;10604;51.976;7.594;2022-07-06T00:32:57;101661.09;;;28.39;34.00
20889;BME280;10604;51.976;7.594;2022-07-06T00:35:24;101664.06;;;27.96;34.81
20889;BME280;10604;51.976;7.594;2022-07-06T00:37:50;101665.28;;;27.92;34.91
20889;BME280;10604;51.976;7.594;2022-07-06T00:40:16;101663.66;;;27.71;35.01
20889;BME280;10604;51.976;7.594;2022-07-06T00:42:43;101671.63;;;27.72;35.23
20889;BME280;10604;51.976;7.594;2022-07-06T00:45:09;101664.94;;;27.14;36.02
20889;BME280;10604;51.976;7.594;2022-07-06T00:47:35;101670.88;;;27.91;34.78
20889;BME280;10604;51.976;7.594;2022-07-06T00:50:02;101681.22;;;28.27;34.38
20889;BME280;10604;51.976;7.594;2022-07-06T00:52:41;101677.66;;;28.36;33.76
20889;BME280;10604;51.976;7.594;2022-07-06T00:55:11;101673.84;;;27.88;34.64
20889;BME280;10604;51.976;7.594;2022-07-06T00:57:37;101672.22;;;27.02;35.93
20889;BME280;10604;51.976;7.594;2022-07-06T01:00:04;101683.25;;;26.67;36.25
20889;BME280;10604;51.976;7.594;2022-07-06T01:02:31;101676.50;;;27.37;34.97
20889;BME280;10604;51.976;7.594;2022-07-06T01:04:56;101681.81;;;26.63;36.80
20889;BME280;10604;51.976;7.594;2022-07-06T01:07:22;101673.94;;;27.35;35.35
20889;BME280;10604;51.976;7.594;2022-07-06T01:09:47;101673.25;;;27.43;34.99
20889;BME280;10604;51.976;7.594;2022-07-06T01:12:13;101671.53;;;27.21;36.00
20889;BME280;10604;51.976;7.594;2022-07-06T01:14:38;101678.53;;;27.55;34.82
20889;BME280;10604;51.976;7.594;2022-07-06T01:17:04;101674.66;;;27.79;34.56
20889;BME280;10604;51.976;7.594;2022-07-06T01:19:30;101676.31;;;27.49;35.12
20889;BME280;10604;51.976;7.594;2022-07-06T01:21:55;101678.63;;;27.33;35.16
20889;BME280;10604;51.976;7.594;2022-07-06T01:24:22;101676.78;;;27.02;36.17
20889;BME280;10604;51.976;7.594;2022-07-06T01:26:47;101665.31;;;27.30;35.42
20889;BME280;10604;51.976;7.594;2022-07-06T01:29:13;101670.91;;;26.85;36.37
20889;BME280;10604;51.976;7.594;2022-07-06T01:31:49;101674.03;;;27.13;35.67
20889;BME280;10604;51.976;7.594;2022-07-06T01:34:18;101665.47;;;27.49;35.06
20889;BME280;10604;51.976;7.594;2022-07-06T01:36:44;101659.59;;;26.92;36.13
20889;BME280;10604;51.976;7.594;2022-07-06T01:39:10;101669.28;;;27.26;35.24
20889;BME280;10604;51.976;7.594;2022-07-06T01:41:36;101663.97;;;27.04;35.69
20889;BME280;10604;51.976;7.594;2022-07-06T01:44:02;101666.59;;;26.83;36.06
20889;BME280;10604;51.976;7.594;2022-07-06T01:46:28;101667.28;;;26.64;36.22
20889;BME280;10604;51.976;7.594;2022-07-06T01:48:53;101656.34;;;26.43;36.96
20889;BME280;10604;51.976;7.594;2022-07-06T01:51:19;101667.81;;;27.22;35.20
20889;BME280;10604;51.976;7.594;2022-07-06T01:53:45;101666.78;;;26.70;35.91
20889;BME280;10604;51.976;7.594;2022-07-06T01:56:11;101662.56;;;26.66;36.30
20889;BME280;10604;51.976;7.594;2022-07-06T01:58:37;101658.97;;;26.34;37.34
20889;BME280;10604;51.976;7.594;2022-07-06T02:01:14;101660.91;;;26.09;37.06
20889;BME280;10604;51.976;7.594;2022-07-06T02:03:41;101659.44;;;26.39;36.71
20889;BME280;10604;51.976;7.594;2022-07-06T02:06:07;101662.97;;;26.62;36.52
20889;BME280;10604;51.976;7.594;2022-07-06T02:08:33;101652.50;;;26.68;35.67
20889;BME280;10604;51.976;7.594;2022-07-06T02:10:59;101658.34;;;26.96;35.83
20889;BME280;10604;51.976;7.594;2022-07-06T02:13:25;101655.50;;;26.32;36.45
20889;BME280;10604;51.976;7.594;2022-07-06T02:15:50;101659.94;;;26.22;37.18
20889;BME280;10604;51.976;7.594;2022-07-06T02:18:16;101657.75;;;26.27;36.99
20889;BME280;10604;51.976;7.594;2022-07-06T02:20:41;101656.13;;;26.35;36.81
20889;BME280;10604;51.976;7.594;2022-07-06T02:23:07;101652.31;;;26.49;36.62
20889;BME280;10604;51.976;7.594;2022-07-06T02:25:33;101654.06;;;26.28;37.05
20889;BME280;10604;51.976;7.594;2022-07-06T02:27:59;101659.69;;;26.02;37.70
20889;BME280;10604;51.976;7.594;2022-07-06T02:30:24;101658.22;;;26.32;36.70
20889;BME280;10604;51.976;7.594;2022-07-06T02:32:49;101659.44;;;26.17;37.24
20889;BME280;10604;51.976;7.594;2022-07-06T02:35:15;101654.28;;;26.25;36.54
20889;BME280;10604;51.976;7.594;2022-07-06T02:37:40;101664.63;;;26.31;36.69
20889;BME280;10604;51.976;7.594;2022-07-06T02:40:06;101654.97;;;26.60;36.03
20889;BME280;10604;51.976;7.594;2022-07-06T02:42:32;101655.00;;;26.38;35.96
20889;BME280;10604;51.976;7.594;2022-07-06T02:44:57;101667.03;;;26.23;36.55
20889;BME280;10604;51.976;7.594;2022-07-06T02:47:23;101655.25;;;26.12;36.96
20889;BME280;10604;51.976;7.594;2022-07-06T02:49:48;101657.72;;;26.04;37.20
20889;BME280;10604;51.976;7.594;2022-07-06T02:52:13;101660.41;;;26.38;36.34
20889;BME280;10604;51.976;7.594;2022-07-06T02:54:39;101664.88;;;26.28;36.76
20889;BME280;10604;51.976;7.594;2022-07-06T02:57:04;101661.44;;;26.26;37.18
20889;BME280;10604;51.976;7.594;2022-07-06T02:59:30;101667.91;;;26.23;36.68
20889;BME280;10604;51.976;7.594;2022-07-06T03:01:55;101668.53;;;26.04;36.57
20889;BME280;10604;51.976;7.594;2022-07-06T03:04:21;101659.22;;;25.51;38.40
20889;BME280;10604;51.976;7.594;2022-07-06T03:06:46;101678.63;;;26.47;36.56
20889;BME280;10604;51.976;7.594;2022-07-06T03:09:11;101674.06;;;25.92;37.48
20889;BME280;10604;51.976;7.594;2022-07-06T03:11:37;101681.22;;;25.93;37.50
20889;BME280;10604;51.976;7.594;2022-07-06T03:14:03;101677.38;;;26.51;36.60
20889;BME280;10604;51.976;7.594;2022-07-06T03:16:29;101684.06;;;26.36;36.60
20889;BME280;10604;51.976;7.594;2022-07-06T03:18:54;101681.00;;;25.26;38.53
20889;BME280;10604;51.976;7.594;2022-07-06T03:21:20;101687.50;;;25.58;37.99
20889;BME280;10604;51.976;7.594;2022-07-06T03:23:45;101690.50;;;24.84;38.75
20889;BME280;10604;51.976;7.594;2022-07-06T03:26:11;101686.97;;;25.07;38.75
20889;BME280;10604;51.976;7.594;2022-07-06T03:28:36;101685.34;;;25.28;38.49
20889;BME280;10604;51.976;7.594;2022-07-06T03:31:01;101687.88;;;24.95;38.94
20889;BME280;10604;51.976;7.594;2022-07-06T03:33:27;101686.66;;;25.58;37.37
20889;BME280;10604;51.976;7.594;2022-07-06T03:35:52;101678.72;;;25.44;37.73
20889;BME280;10604;51.976;7.594;2022-07-06T03:38:17;101692.44;;;25.29;38.42
20889;BME280;10604;51.976;7.594;2022-07-06T03:40:43;101689.31;;;25.47;38.10
20889;BME280;10604;51.976;7.594;2022-07-06T03:43:08;101682.03;;;25.36;38.27
20889;BME280;10604;51.976;7.594;2022-07-06T03:45:34;101690.63;;;25.06;39.41
20889;BME280;10604;51.976;7.594;2022-07-06T03:47:59;101681.44;;;25.44;38.68
20889;BME280;10604;51.976;7.594;2022-07-06T03:50:24;101673.19;;;25.69;37.75
20889;BME280;10604;51.976;7.594;2022-07-06T03:52:50;101679.22;;;25.95;36.81
20889;BME280;10604;51.976;7.594;2022-07-06T03:55:15;101681.88;;;25.61;37.90
20889;BME280;10604;51.976;7.594;2022-07-06T03:57:41;101679.97;;;25.86;37.79
20889;BME280;10604;51.976;7.594;2022-07-06T04:00:07;101688.28;;;25.36;38.31
20889;BME280;10604;51.976;7.594;2022-07-06T04:02:33;101689.53;;;26.01;37.64
20889;BME280;10604;51.976;7.594;2022-07-06T04:04:58;101687.34;;;25.95;37.49
20889;BME280;10604;51.976;7.594;2022-07-06T04:07:25;101678.81;;;25.66;37.51
20889;BME280;10604;51.976;7.594;2022-07-06T04:09:50;101683.91;;;25.47;38.18
20889;BME280;10604;51.976;7.594;2022-07-06T04:12:16;101678.50;;;25.47;38.04
20889;BME280;10604;51.976;7.594;2022-07-06T04:14:42;101680.34;;;25.92;37.68
20889;BME280;10604;51.976;7.594;2022-07-06T04:17:07;101676.22;;;25.29;38.55
20889;BME280;10604;51.976;7.594;2022-07-06T04:19:51;101675.41;;;26.08;36.96
20889;BME280;10604;51.976;7.594;2022-07-06T04:22:16;101686.72;;;25.45;38.85
20889;BME280;10604;51.976;7.594;2022-07-06T04:24:42;101684.84;;;25.34;38.37
20889;BME280;10604;51.976;7.594;2022-07-06T04:27:08;101684.47;;;25.63;38.64
20889;BME280;10604;51.976;7.594;2022-07-06T04:29:33;101687.53;;;24.63;40.09
20889;BME280;10604;51.976;7.594;2022-07-06T04:31:58;101695.09;;;25.18;39.01
20889;BME280;10604;51.976;7.594;2022-07-06T04:34:24;101690.16;;;25.71;38.29
20889;BME280;10604;51.976;7.594;2022-07-06T04:36:49;101685.47;;;25.73;38.36
20889;BME280;10604;51.976;7.594;2022-07-06T04:39:15;101684.53;;;26.07;37.12
20889;BME280;10604;51.976;7.594;2022-07-06T04:41:40;101682.81;;;26.06;37.47
20889;BME280;10604;51.976;7.594;2022-07-06T04:44:05;101689.41;;;26.69;36.73
20889;BME280;10604;51.976;7.594;2022-07-06T04:46:31;101691.53;;;26.43;36.51
20889;BME280;10604;51.976;7.594;2022-07-06T04:48:56;101689.81;;;26.20;37.52
20889;BME280;10604;51.976;7.594;2022-07-06T04:51:21;101691.41;;;26.56;37.30
20889;BME280;10604;51.976;7.594;2022-07-06T04:53:47;101682.84;;;26.29;37.83
20889;BME280;10604;51.976;7.594;2022-07-06T04:56:12;101689.44;;;26.13;38.07
20889;BME280;10604;51.976;7.594;2022-07-06T04:58:38;101683.88;;;25.82;38.10
20889;BME280;10604;51.976;7.594;2022-07-06T05:01:03;101687.75;;;26.89;37.31
20889;BME280;10604;51.976;7.594;2022-07-06T05:03:28;101689.28;;;24.51;40.27
20889;BME280;10604;51.976;7.594;2022-07-06T05:05:54;101685.47;;;25.73;38.69
20889;BME280;10604;51.976;7.594;2022-07-06T05:08:19;101677.63;;;25.46;39.06
20889;BME280;10604;51.976;7.594;2022-07-06T05:10:45;101683.06;;;26.26;38.24
20889;BME280;10604;51.976;7.594;2022-07-06T05:13:10;101677.31;;;26.73;37.45
20889;BME280;10604;51.976;7.594;2022-07-06T05:15:36;101682.22;;;26.25;37.83
20889;BME280;10604;51.976;7.594;2022-07-06T05:18:01;101681.59;;;26.22;38.26
20889;BME280;10604;51.976;7.594;2022-07-06T05:20:26;101683.53;;;26.64;37.44
20889;BME280;10604;51.976;7.594;2022-07-06T05:22:52;101682.03;;;25.71;38.88
20889;BME280;10604;51.976;7.594;2022-07-06T05:25:17;101687.50;;;24.39;41.07
20889;BME280;10604;51.976;7.594;2022-07-06T05:27:43;101675.84;;;25.58;39.39
20889;BME280;10604;51.976;7.594;2022-07-06T05:30:09;101685.50;;;26.51;38.33
20889;BME280;10604;51.976;7.594;2022-07-06T05:32:34;101670.75;;;25.99;38.20
20889;BME280;10604;51.976;7.594;2022-07-06T05:35:00;101688.00;;;26.32;38.56
20889;BME280;10604;51.976;7.594;2022-07-06T05:37:25;101689.66;;;26.77;37.78
20889;BME280;10604;51.976;7.594;2022-07-06T05:39:51;101685.22;;;27.19;36.65
20889;BME280;10604;51.976;7.594;2022-07-06T05:42:16;101687.72;;;26.24;38.64
20889;BME280;10604;51.976;7.594;2022-07-06T05:44:42;101692.09;;;27.23;37.24
20889;BME280;10604;51.976;7.594;2022-07-06T05:47:07;101693.41;;;26.32;38.22
20889;BME280;10604;51.976;7.594;2022-07-06T05:49:51;101694.78;;;26.80;37.79
20889;BME280;10604;51.976;7.594;2022-07-06T05:52:35;101697.66;;;26.23;38.13
20889;BME280;10604;51.976;7.594;2022-07-06T05:55:01;101702.00;;;27.13;37.53
20889;BME280;10604;51.976;7.594;2022-07-06T05:57:27;101709.28;;;27.02;37.57
20889;BME280;10604;51.976;7.594;2022-07-06T05:59:52;101713.53;;;26.05;38.44
20889;BME280;10604;51.976;7.594;2022-07-06T06:02:17;101706.44;;;26.49;38.29
20889;BME280;10604;51.976;7.594;2022-07-06T06:04:43;101708.28;;;27.14;37.57
20889;BME280;10604;51.976;7.594;2022-07-06T06:07:08;101719.19;;;26.92;37.55
20889;BME280;10604;51.976;7.594;2022-07-06T06:09:34;101720.41;;;27.62;36.43
20889;BME280;10604;51.976;7.594;2022-07-06T06:11:59;101721.59;;;28.21;35.37
20889;BME280;10604;51.976;7.594;2022-07-06T06:14:24;101727.03;;;28.91;34.40
20889;BME280;10604;51.976;7.594;2022-07-06T06:16:50;101727.00;;;27.70;36.04
20889;BME280;10604;51.976;7.594;2022-07-06T06:19:15;101726.47;;;27.76;35.99
20889;BME280;10604;51.976;7.594;2022-07-06T06:21:40;101730.78;;;27.46;36.92
20889;BME280;10604;51.976;7.594;2022-07-06T06:24:06;101723.94;;;28.25;35.65
20889;BME280;10604;51.976;7.594;2022-07-06T06:26:32;101729.66;;;26.63;37.81
20889;BME280;10604;51.976;7.594;2022-07-06T06:28:57;101729.50;;;27.61;36.58
20889;BME280;10604;51.976;7.594;2022-07-06T06:31:23;101730.63;;;27.80;36.52
20889;BME280;10604;51.976;7.594;2022-07-06T06:33:48;101725.69;;;27.85;36.10
20889;BME280;10604;51.976;7.594;2022-07-06T06:36:14;101728.91;;;27.79;36.92
20889;BME280;10604;51.976;7.594;2022-07-06T06:38:39;101731.00;;;28.87;35.11
20889;BME280;10604;51.976;7.594;2022-07-06T06:41:05;101730.34;;;28.55;35.63
20889;BME280;10604;51.976;7.594;2022-07-06T06:43:30;101731.88;;;28.17;35.66
20889;BME280;10604;51.976;7.594;2022-07-06T06:45:56;101730.16;;;27.22;36.91
20889;BME280;10604;51.976;7.594;2022-07-06T06:48:21;101736.66;;;26.65;38.47
20889;BME280;10604;51.976;7.594;2022-07-06T06:50:47;101734.47;;;26.15;39.77
20889;BME280;10604;51.976;7.594;2022-07-06T06:53:12;101743.06;;;27.61;37.22
20889;BME280;10604;51.976;7.594;2022-07-06T06:55:38;101740.50;;;27.81;37.33
20889;BME280;10604;51.976;7.594;2022-07-06T06:58:04;101740.91;;;28.58;36.36
20889;BME280;10604;51.976;7.594;2022-07-06T07:00:29;101746.94;;;28.71;35.24
20889;BME280;10604;51.976;7.594;2022-07-06T07:02:55;101753.31;;;28.81;35.39
20889;BME280;10604;51.976;7.594;2022-07-06T07:05:20;101751.34;;;29.98;33.95
20889;BME280;10604;51.976;7.594;2022-07-06T07:07:45;101745.81;;;30.27;33.48
20889;BME280;10604;51.976;7.594;2022-07-06T07:10:11;101755.66;;;30.01;33.33
20889;BME280;10604;51.976;7.594;2022-07-06T07:12:46;101759.13;;;29.36;34.58
20889;BME280;10604;51.976;7.594;2022-07-06T07:15:12;101752.84;;;29.45;34.63
20889;BME280;10604;51.976;7.594;2022-07-06T07:17:39;101755.56;;;29.45;34.10
20889;BME280;10604;51.976;7.594;2022-07-06T07:20:05;101753.97;;;27.71;36.35
20889;BME280;10604;51.976;7.594;2022-07-06T07:22:30;101749.69;;;29.40;34.51
20889;BME280;10604;51.976;7.594;2022-07-06T07:24:56;101751.03;;;30.48;33.33
20889;BME280;10604;51.976;7.594;2022-07-06T07:27:21;101758.25;;;30.03;33.49
20889;BME280;10604;51.976;7.594;2022-07-06T07:29:46;101751.69;;;29.76;33.49
20889;BME280;10604;51.976;7.594;2022-07-06T07:32:12;101754.53;;;29.75;33.40
20889;BME280;10604;51.976;7.594;2022-07-06T07:34:37;101755.94;;;29.11;34.12
20889;BME280;10604;51.976;7.594;2022-07-06T07:37:03;101764.88;;;29.52;33.96
20889;BME280;10604;51.976;7.594;2022-07-06T07:39:28;101766.00;;;29.59;33.76
20889;BME280;10604;51.976;7.594;2022-07-06T07:41:54;101759.81;;;30.42;32.85
20889;BME280;10604;51.976;7.594;2022-07-06T07:44:19;101774.97;;;28.71;34.67
20889;BME280;10604;51.976;7.594;2022-07-06T07:46:45;101771.88;;;29.35;33.66
20889;BME280;10604;51.976;7.594;2022-07-06T07:49:10;101767.44;;;28.44;35.37
20889;BME280;10604;51.976;7.594;2022-07-06T07:51:36;101779.13;;;29.15;34.16
20889;BME280;10604;51.976;7.594;2022-07-06T07:54:01;101776.28;;;29.27;33.49
20889;BME280;10604;51.976;7.594;2022-07-06T07:56:27;101770.88;;;29.65;33.18
20889;BME280;10604;51.976;7.594;2022-07-06T07:58:52;101768.81;;;29.09;34.04
20889;BME280;10604;51.976;7.594;2022-07-06T08:01:17;101777.16;;;29.27;33.41
20889;BME280;10604;51.976;7.594;2022-07-06T08:03:43;101777.97;;;29.08;33.86
20889;BME280;10604;51.976;7.594;2022-07-06T08:06:08;101774.31;;;29.77;33.10
20889;BME280;10604;51.976;7.594;2022-07-06T08:08:34;101771.69;;;28.37;35.88
20889;BME280;10604;51.976;7.594;2022-07-06T08:10:59;101778.59;;;28.00;35.36
20889;BME280;10604;51.976;7.594;2022-07-06T08:13:25;101778.75;;;28.80;34.21
20889;BME280;10604;51.976;7.594;2022-07-06T08:15:50;101769.00;;;28.17;35.60
20889;BME280;10604;51.976;7.594;2022-07-06T08:18:15;101770.97;;;27.73;35.07
20889;BME280;10604;51.976;7.594;2022-07-06T08:20:41;101769.91;;;26.89;36.93
20889;BME280;10604;51.976;7.594;2022-07-06T08:23:06;101773.84;;;28.13;34.53
20889;BME280;10604;51.976;7.594;2022-07-06T08:25:32;101776.00;;;29.87;32.13
20889;BME280;10604;51.976;7.594;2022-07-06T08:27:57;101773.44;;;29.95;31.95
20889;BME280;10604;51.976;7.594;2022-07-06T08:30:22;101782.47;;;28.79;33.67
20889;BME280;10604;51.976;7.594;2022-07-06T08:32:48;101770.50;;;28.91;33.50
20889;BME280;10604;51.976;7.594;2022-07-06T08:35:13;101779.16;;;29.35;32.67
20889;BME280;10604;51.976;7.594;2022-07-06T08:37:39;101773.97;;;30.09;31.96
20889;BME280;10604;51.976;7.594;2022-07-06T08:40:05;101771.09;;;29.14;33.38
20889;BME280;10604;51.976;7.594;2022-07-06T08:42:33;101768.00;;;29.38;32.96
20889;BME280;10604;51.976;7.594;2022-07-06T08:44:59;101761.09;;;31.12;30.92
20889;BME280;10604;51.976;7.594;2022-07-06T08:47:29;101766.84;;;29.88;31.57
20889;BME280;10604;51.976;7.594;2022-07-06T08:49:56;101776.59;;;28.02;33.61
20889;BME280;10604;51.976;7.594;2022-07-06T08:52:23;101768.97;;;30.60;31.20
20889;BME280;10604;51.976;7.594;2022-07-06T08:54:48;101762.25;;;29.89;31.48
20889;BME280;10604;51.976;7.594;2022-07-06T08:57:14;101761.28;;;29.61;31.53
20889;BME280;10604;51.976;7.594;2022-07-06T08:59:40;101760.25;;;30.01;31.04
20889;BME280;10604;51.976;7.594;2022-07-06T09:02:05;101765.50;;;31.84;28.36
20889;BME280;10604;51.976;7.594;2022-07-06T09:04:35;101760.16;;;30.94;29.86
20889;BME280;10604;51.976;7.594;2022-07-06T09:07:00;101759.44;;;27.92;32.10
20889;BME280;10604;51.976;7.594;2022-07-06T09:09:29;101758.19;;;30.22;29.89
20889;BME280;10604;51.976;7.594;2022-07-06T09:11:56;101757.94;;;29.09;31.25
20889;BME280;10604;51.976;7.594;2022-07-06T09:14:22;101757.78;;;31.08;29.44
20889;BME280;10604;51.976;7.594;2022-07-06T09:16:51;101756.13;;;31.61;28.54
20889;BME280;10604;51.976;7.594;2022-07-06T09:19:17;101771.00;;;29.92;29.20
20889;BME280;10604;51.976;7.594;2022-07-06T09:21:43;101752.78;;;29.16;30.48
20889;BME280;10604;51.976;7.594;2022-07-06T09:24:10;101755.41;;;29.75;30.17
20889;BME280;10604;51.976;7.594;2022-07-06T09:26:37;101748.69;;;31.18;28.83
20889;BME280;10604;51.976;7.594;2022-07-06T09:29:03;101751.84;;;31.84;27.33
20889;BME280;10604;51.976;7.594;2022-07-06T09:31:29;101752.13;;;31.73;27.86
20889;BME280;10604;51.976;7.594;2022-07-06T09:34:04;101753.75;;;32.09;26.80
20889;BME280;10604;51.976;7.594;2022-07-06T09:36:45;101751.34;;;32.66;25.90
20889;BME280;10604;51.976;7.594;2022-07-06T09:39:27;101746.66;;;32.92;26.66
20889;BME280;10604;51.976;7.594;2022-07-06T09:42:01;101745.38;;;31.85;26.16
20889;BME280;10604;51.976;7.594;2022-07-06T09:44:32;101744.41;;;32.46;26.84
20889;BME280;10604;51.976;7.594;2022-07-06T09:47:02;101741.66;;;31.50;26.55
20889;BME280;10604;51.976;7.594;2022-07-06T09:49:28;101747.91;;;32.64;26.85
20889;BME280;10604;51.976;7.594;2022-07-06T09:52:12;101739.91;;;33.69;24.65
20889;BME280;10604;51.976;7.594;2022-07-06T09:54:39;101739.59;;;31.88;25.48
20889;BME280;10604;51.976;7.594;2022-07-06T09:57:05;101743.59;;;32.53;25.51
20889;BME280;10604;51.976;7.594;2022-07-06T09:59:33;101741.47;;;33.64;24.23
20889;BME280;10604;51.976;7.594;2022-07-06T10:02:01;101745.69;;;32.34;26.34
20889;BME280;10604;51.976;7.594;2022-07-06T10:04:29;101741.97;;;31.83;26.75
20889;BME280;10604;51.976;7.594;2022-07-06T10:06:56;101738.75;;;32.39;25.66
20889;BME280;10604;51.976;7.594;2022-07-06T10:09:24;101735.69;;;31.90;26.93
20889;BME280;10604;51.976;7.594;2022-07-06T10:11:54;101740.53;;;32.22;26.38
20889;BME280;10604;51.976;7.594;2022-07-06T10:14:24;101744.66;;;33.11;25.01
20889;BME280;10604;51.976;7.594;2022-07-06T10:16:50;101744.66;;;33.19;26.43
20889;BME280;10604;51.976;7.594;2022-07-06T10:19:18;101750.78;;;33.04;26.19
20889;BME280;10604;51.976;7.594;2022-07-06T10:21:44;101746.81;;;31.54;27.38
20889;BME280;10604;51.976;7.594;2022-07-06T10:24:11;101751.56;;;33.47;24.76
20889;BME280;10604;51.976;7.594;2022-07-06T10:26:38;101746.09;;;33.63;25.38
20889;BME280;10604;51.976;7.594;2022-07-06T10:29:05;101742.97;;;31.82;26.75
20889;BME280;10604;51.976;7.594;2022-07-06T10:31:32;101751.06;;;31.92;26.69
20889;BME280;10604;51.976;7.594;2022-07-06T10:34:00;101740.50;;;30.72;27.60
20889;BME280;10604;51.976;7.594;2022-07-06T10:36:27;101751.09;;;31.21;27.15
20889;BME280;10604;51.976;7.594;2022-07-06T10:38:53;101744.69;;;31.83;27.37
20889;BME280;10604;51.976;7.594;2022-07-06T10:41:30;101756.22;;;32.46;26.89
20889;BME280;10604;51.976;7.594;2022-07-06T10:43:56;101741.69;;;31.15;26.98
20889;BME280;10604;51.976;7.594;2022-07-06T10:46:24;101752.84;;;33.19;26.25
20889;BME280;10604;51.976;7.594;2022-07-06T10:48:52;101741.97;;;34.63;24.19
20889;BME280;10604;51.976;7.594;2022-07-06T10:51:26;101742.00;;;31.12;27.37
20889;BME280;10604;51.976;7.594;2022-07-06T10:53:56;101740.00;;;34.41;25.55
20889;BME280;10604;51.976;7.594;2022-07-06T10:56:40;101745.22;;;32.72;25.85
20889;BME280;10604;51.976;7.594;2022-07-06T10:59:11;101735.88;;;34.84;24.35
20889;BME280;10604;51.976;7.594;2022-07-06T11:01:38;101744.22;;;34.60;24.11
20889;BME280;10604;51.976;7.594;2022-07-06T11:06:32;101743.72;;;34.95;24.02
20889;BME280;10604;51.976;7.594;2022-07-06T11:08:59;101736.88;;;33.80;24.71
20889;BME280;10604;51.976;7.594;2022-07-06T11:14:01;101738.66;;;32.57;26.31
20889;BME280;10604;51.976;7.594;2022-07-06T11:16:28;101736.16;;;33.22;26.21
20889;BME280;10604;51.976;7.594;2022-07-06T11:24:10;101735.13;;;36.04;23.16
20889;BME280;10604;51.976;7.594;2022-07-06T11:26:37;101723.88;;;36.43;23.43
20889;BME280;10604;51.976;7.594;2022-07-06T11:29:04;101713.22;;;36.10;22.75
20889;BME280;10604;51.976;7.594;2022-07-06T11:31:35;101715.16;;;34.42;21.84
20889;BME280;10604;51.976;7.594;2022-07-06T11:34:02;101720.22;;;35.23;21.41
20889;BME280;10604;51.976;7.594;2022-07-06T11:36:28;101713.59;;;37.02;21.31
20889;BME280;10604;51.976;7.594;2022-07-06T11:38:53;101720.25;;;39.62;19.19
20889;BME280;10604;51.976;7.594;2022-07-06T11:41:19;101709.94;;;39.03;20.08
20889;BME280;10604;51.976;7.594;2022-07-06T11:43:45;101704.78;;;37.07;20.58
20889;BME280;10604;51.976;7.594;2022-07-06T11:46:28;101722.88;;;35.31;23.44
20889;BME280;10604;51.976;7.594;2022-07-06T11:51:29;101716.31;;;33.28;23.25
20889;BME280;10604;51.976;7.594;2022-07-06T11:53:57;101715.41;;;34.08;23.91
20889;BME280;10604;51.976;7.594;2022-07-06T11:56:25;101710.53;;;33.39;24.27
20889;BME280;10604;51.976;7.594;2022-07-06T11:58:57;101710.59;;;32.89;23.65
20889;BME280;10604;51.976;7.594;2022-07-06T12:01:24;101702.53;;;34.64;22.88
20889;BME280;10604;51.976;7.594;2022-07-06T12:03:51;101706.25;;;34.40;22.91
20889;BME280;10604;51.976;7.594;2022-07-06T12:06:21;101692.44;;;34.65;22.25
20889;BME280;10604;51.976;7.594;2022-07-06T12:08:56;101695.41;;;34.86;22.30
20889;BME280;10604;51.976;7.594;2022-07-06T12:11:25;101707.03;;;37.18;21.92
20889;BME280;10604;51.976;7.594;2022-07-06T12:13:52;101697.84;;;34.81;21.91
20889;BME280;10604;51.976;7.594;2022-07-06T12:16:18;101685.03;;;34.34;22.59
20889;BME280;10604;51.976;7.594;2022-07-06T12:18:47;101698.28;;;36.28;20.50
20889;BME280;10604;51.976;7.594;2022-07-06T12:21:15;101681.38;;;34.03;22.74
20889;BME280;10604;51.976;7.594;2022-07-06T12:23:46;101697.84;;;33.78;22.20
20889;BME280;10604;51.976;7.594;2022-07-06T12:26:14;101687.88;;;36.38;20.89
20889;BME280;10604;51.976;7.594;2022-07-06T12:28:41;101694.00;;;36.91;20.39
20889;BME280;10604;51.976;7.594;2022-07-06T12:31:07;101686.38;;;35.46;22.24
20889;BME280;10604;51.976;7.594;2022-07-06T12:33:33;101686.16;;;35.32;21.91
20889;BME280;10604;51.976;7.594;2022-07-06T12:36:14;101674.56;;;34.77;22.68
20889;BME280;10604;51.976;7.594;2022-07-06T12:38:47;101671.06;;;36.03;21.78
20889;BME280;10604;51.976;7.594;2022-07-06T12:41:33;101671.19;;;36.97;20.14
20889;BME280;10604;51.976;7.594;2022-07-06T12:44:07;101668.28;;;35.74;20.57
20889;BME280;10604;51.976;7.594;2022-07-06T12:46:38;101671.31;;;37.10;20.42
20889;BME280;10604;51.976;7.594;2022-07-06T12:49:23;101662.44;;;36.06;21.52
20889;BME280;10604;51.976;7.594;2022-07-06T12:54:21;101664.59;;;36.40;20.60
20889;BME280;10604;51.976;7.594;2022-07-06T12:57:14;101660.16;;;35.95;21.12
20889;BME280;10604;51.976;7.594;2022-07-06T12:59:47;101670.25;;;37.25;21.11
20889;BME280;10604;51.976;7.594;2022-07-06T13:02:21;101666.22;;;37.49;20.42
20889;BME280;10604;51.976;7.594;2022-07-06T13:05:04;101658.81;;;38.53;19.14